^^
Grace C. Lehan Memorial Weather Station Historical Data
Daily Summary for April 27, 2021 Units:  Metric    English   Both
Daily Weekly Monthly Yearly
  High: Low: Average:
Temperature: 34.8 °C 23.6 °C 28.5 °C
Dew Point: 25.2 °C 20.9 °C 23.1 °C
Humidity: 94% 49.5% 74%
Wind Speed: 6.3km/h 0km/h 0.6km/h
Wind Gust: 22.5km/h - -
Wind- - SW
Pressure: 1019.9 hPa 1015.8 hPa -
Precipitation: 0 mm    
 
 
Tabular Data for April 27, 2021
Time Temperature Dew Point Pressure Wind Wind Speed Wind Gust Humidity Rainfall Rate (Hourly) solar
00:09 26.6 °C 23.7 °C 1016.5 hPa Calm     84% 0 mm 0 W/m2
00:14 26.6 °C 23.7 °C 1016.5 hPa Calm     84% 0 mm 0 W/m2
00:19 26.6 °C 23.6 °C 1016.5 hPa Calm     84% 0 mm 0 W/m2
00:24 26.6 °C 23.6 °C 1016.1 hPa Calm     84% 0 mm 0 W/m2
00:29 26.5 °C 23.7 °C 1016.1 hPa Calm     84.3% 0 mm 0 W/m2
00:34 26.4 °C 23.7 °C 1016.1 hPa Calm     85% 0 mm 0 W/m2
00:39 26.4 °C 23.7 °C 1016.1 hPa Calm     85% 0 mm 0 W/m2
00:44 26.4 °C 23.7 °C 1016.1 hPa Calm     85% 0 mm 0 W/m2
00:49 26.3 °C 23.6 °C 1016.1 hPa Calm     85% 0 mm 0 W/m2
00:54 26.3 °C 23.6 °C 1016.1 hPa Calm     85.3% 0 mm 0 W/m2
00:59 26.2 °C 23.7 °C 1016.1 hPa Calm     86% 0 mm 0 W/m2
01:04 26.2 °C 23.7 °C 1016.1 hPa Calm     86% 0 mm 0 W/m2
01:09 26.1 °C 23.6 °C 1016.5 hPa Calm     86% 0 mm 0 W/m2
01:14 26.1 °C 23.5 °C 1016.5 hPa Calm     86% 0 mm 0 W/m2
01:19 26 °C 23.4 °C 1016.5 hPa Calm     86% 0 mm 0 W/m2
01:24 25.9 °C 23.6 °C 1016.1 hPa Calm     87% 0 mm 0 W/m2
01:29 25.9 °C 23.6 °C 1016.1 hPa Calm     87% 0 mm 0 W/m2
01:34 25.8 °C 23.5 °C 1016.1 hPa Calm     87% 0 mm 0 W/m2
01:39 25.8 °C 23.4 °C 1016.1 hPa Calm     87% 0 mm 0 W/m2
01:44 25.7 °C 23.4 °C 1016.1 hPa Calm     87% 0 mm 0 W/m2
01:49 25.6 °C 23.4 °C 1016.1 hPa Calm     87.3% 0 mm 0 W/m2
01:54 25.6 °C 23.4 °C 1015.8 hPa Calm     88% 0 mm 0 W/m2
01:59 25.5 °C 23.4 °C 1015.8 hPa Calm     88% 0 mm 0 W/m2
02:04 25.4 °C 23.3 °C 1016.1 hPa Calm     88% 0 mm 0 W/m2
02:09 25.4 °C 23.3 °C 1016.1 hPa Calm     88% 0 mm 0 W/m2
02:14 25.4 °C 23.2 °C 1015.8 hPa Calm     88% 0 mm 0 W/m2
02:19 25.3 °C 23.2 °C 1015.8 hPa Calm     88% 0 mm 0 W/m2
02:24 25.3 °C 23.2 °C 1015.8 hPa Calm     88.4% 0 mm 0 W/m2
02:29 25.2 °C 23.3 °C 1015.8 hPa Calm     89% 0 mm 0 W/m2
02:34 25.2 °C 23.3 °C 1015.8 hPa Calm     89% 0 mm 0 W/m2
02:39 25.2 °C 23.2 °C 1015.8 hPa Calm     89% 0 mm 0 W/m2
02:44 25.1 °C 23.2 °C 1015.8 hPa Calm     89% 0 mm 0 W/m2
02:49 25.1 °C 23.2 °C 1015.8 hPa Calm     89% 0 mm 0 W/m2
02:54 25.1 °C 23.1 °C 1016.1 hPa Calm     89% 0 mm 0 W/m2
02:59 25 °C 23.1 °C 1016.1 hPa Calm     89% 0 mm 0 W/m2
03:04 24.9 °C 23.1 °C 1016.1 hPa Calm     89% 0 mm 0 W/m2
03:09 24.9 °C 23.2 °C 1016.1 hPa Calm     90% 0 mm 0 W/m2
03:14 24.9 °C 23.2 °C 1016.1 hPa Calm     90% 0 mm 0 W/m2
03:19 24.9 °C 23.2 °C 1016.1 hPa Calm     90% 0 mm 0 W/m2
03:24 24.9 °C 23.2 °C 1016.1 hPa Calm     90% 0 mm 0 W/m2
03:29 24.9 °C 23.2 °C 1016.1 hPa Calm     90% 0 mm 0 W/m2
03:34 24.8 °C 23.1 °C 1016.1 hPa Calm     90% 0 mm 0 W/m2
03:39 24.8 °C 23.1 °C 1016.1 hPa Calm     90% 0 mm 0 W/m2
03:44 24.8 °C 23.1 °C 1016.1 hPa Calm     90% 0 mm 0 W/m2
03:49 24.8 °C 23 °C 1015.8 hPa Calm     90% 0 mm 0 W/m2
03:54 24.7 °C 23 °C 1015.8 hPa Calm     90% 0 mm 0 W/m2
03:59 24.7 °C 23 °C 1015.8 hPa Calm     90.3% 0 mm 0 W/m2
04:09 24.7 °C 23.1 °C 1016.1 hPa Calm     91% 0 mm 0 W/m2
04:14 24.6 °C 23.1 °C 1016.1 hPa Calm     91% 0 mm 0 W/m2
04:19 24.6 °C 23 °C 1016.1 hPa Calm     91% 0 mm 0 W/m2
04:24 24.6 °C 23 °C 1016.1 hPa Calm     91% 0 mm 0 W/m2
04:29 24.6 °C 23 °C 1016.1 hPa Calm     91% 0 mm 0 W/m2
04:34 24.5 °C 22.9 °C 1015.8 hPa Calm     91% 0 mm 0 W/m2
04:39 24.4 °C 22.9 °C 1015.8 hPa Calm     91% 0 mm 0 W/m2
04:44 24.4 °C 22.9 °C 1015.8 hPa Calm     91% 0 mm 0 W/m2
04:49 24.4 °C 22.8 °C 1015.8 hPa Calm     91% 0 mm 0 W/m2
04:54 24.3 °C 22.8 °C 1015.8 hPa Calm     91% 0 mm 0 W/m2
04:59 24.3 °C 22.7 °C 1015.8 hPa Calm     91% 0 mm 0 W/m2
05:04 24.2 °C 22.7 °C 1015.8 hPa Calm     91% 0 mm 0 W/m2
05:09 24.2 °C 22.6 °C 1015.8 hPa Calm     91% 0 mm 0 W/m2
05:14 24.2 °C 22.6 °C 1015.8 hPa Calm     91% 0 mm 0 W/m2
05:19 24.1 °C 22.6 °C 1015.8 hPa Calm     91% 0 mm 0 W/m2
05:24 24.1 °C 22.5 °C 1015.8 hPa Calm     91% 0 mm 0 W/m2
05:29 24 °C 22.4 °C 1015.8 hPa Calm     91% 0 mm 0 W/m2
05:34 23.9 °C 22.6 °C 1015.8 hPa Calm     91.9% 0 mm 0 W/m2
05:39 23.9 °C 22.6 °C 1015.8 hPa Calm     92% 0 mm 0 W/m2
05:44 23.8 °C 22.5 °C 1015.8 hPa Calm     92% 0 mm 0 W/m2
05:49 23.8 °C 22.4 °C 1016.1 hPa Calm     92% 0 mm 0 W/m2
05:54 23.8 °C 22.4 °C 1016.1 hPa Calm     92% 0 mm 0 W/m2
05:59 23.7 °C 22.4 °C 1016.1 hPa Calm     92% 0 mm 0 W/m2
06:04 23.7 °C 22.3 °C 1016.1 hPa Calm     92% 0 mm 0 W/m2
06:09 23.7 °C 22.3 °C 1016.1 hPa Calm     92% 0 mm 0 W/m2
06:14 23.6 °C 22.2 °C 1016.1 hPa Calm     92% 0 mm 0 W/m2
06:19 23.6 °C 22.2 °C 1016.1 hPa Calm     92% 0 mm 7 W/m2
06:24 23.6 °C 22.3 °C 1016.1 hPa Calm     92.9% 0 mm 11 W/m2
06:29 23.6 °C 22.4 °C 1016.1 hPa Calm     93% 0 mm 14 W/m2
06:34 23.6 °C 22.3 °C 1016.1 hPa Calm     93% 0 mm 19 W/m2
06:39 23.6 °C 22.3 °C 1016.1 hPa Calm     93% 0 mm 26 W/m2
06:44 23.6 °C 22.4 °C 1016.1 hPa Calm     93% 0 mm 35 W/m2
06:49 23.6 °C 22.4 °C 1016.5 hPa Calm     93% 0 mm 47 W/m2
06:54 23.6 °C 22.4 °C 1016.5 hPa Calm     93% 0 mm 86 W/m2
06:59 23.7 °C 22.6 °C 1016.5 hPa Calm     93.6% 0 mm 95 W/m2
07:04 23.9 °C 22.9 °C 1016.5 hPa Calm     94% 0 mm 105 W/m2
07:09 24.2 °C 23.2 °C 1016.5 hPa Calm     94% 0 mm 116 W/m2
07:14 24.4 °C 23.4 °C 1016.5 hPa Calm     94% 0 mm 121 W/m2
07:19 24.7 °C 23.6 °C 1016.5 hPa Calm     93.7% 0 mm 84 W/m2
07:24 24.9 °C 23.7 °C 1016.5 hPa Calm     92.5% 0 mm 77 W/m2
07:29 25.1 °C 23.6 °C 1016.5 hPa Calm     91.4% 0 mm 74 W/m2
07:34 25.2 °C 23.6 °C 1016.5 hPa Calm     91% 0 mm 60 W/m2
07:39 25.3 °C 23.7 °C 1016.5 hPa Calm     90.4% 0 mm 53 W/m2
07:44 25.4 °C 23.7 °C 1016.5 hPa Calm     90% 0 mm 54 W/m2
07:49 25.6 °C 23.6 °C 1016.5 hPa Calm     89.2% 0 mm 76 W/m2
07:54 25.6 °C 23.7 °C 1016.5 hPa Calm     89% 0 mm 81 W/m2
07:59 25.7 °C 23.6 °C 1016.8 hPa WNW 0.2 km/h 1.6 km/h 88.1% 0 mm 84 W/m2
08:09 25.8 °C 23.4 °C 1016.8 hPa Calm     87% 0 mm 169 W/m2
08:14 25.9 °C 23.6 °C 1016.8 hPa Calm     87% 0 mm 281 W/m2
08:19 26.1 °C 23.7 °C 1016.8 hPa Calm     87% 0 mm 288 W/m2
08:24 26.4 °C 23.9 °C 1016.8 hPa Calm   1.6 km/h 86.4% 0 mm 299 W/m2
08:29 26.8 °C 24.1 °C 1016.8 hPa NW 0.2 km/h 3.2 km/h 84.9% 0 mm 325 W/m2
08:34 27.2 °C 24.1 °C 1016.8 hPa Calm   3.2 km/h 83% 0 mm 343 W/m2
08:39 27.6 °C 24.2 °C 1016.5 hPa NW 0.2 km/h 6.4 km/h 81.6% 0 mm 353 W/m2
08:44 28 °C 24.4 °C 1016.5 hPa NW 0.2 km/h 6.4 km/h 80.6% 0 mm 374 W/m2
08:49 28.4 °C 24.5 °C 1016.5 hPa Calm   6.4 km/h 79.4% 0 mm 392 W/m2
08:54 28.7 °C 24.5 °C 1016.8 hPa Calm   6.4 km/h 78% 0 mm 410 W/m2
08:59 29.1 °C 24.6 °C 1016.5 hPa NW 0.5 km/h 6.4 km/h 77% 0 mm 424 W/m2
09:04 29.4 °C 24.6 °C 1016.5 hPa NW 1.4 km/h 8 km/h 75.3% 0 mm 443 W/m2
09:09 29.8 °C 24.8 °C 1016.5 hPa NW 0.5 km/h 8 km/h 74.5% 0 mm 457 W/m2
09:14 30.1 °C 24.9 °C 1016.5 hPa NW 0.2 km/h 8 km/h 74% 0 mm 471 W/m2
09:19 30.4 °C 24.9 °C 1016.8 hPa NW 2.3 km/h 9.7 km/h 72.6% 0 mm 487 W/m2
09:24 30.6 °C 24.9 °C 1016.8 hPa NNW 0.2 km/h 9.7 km/h 71.8% 0 mm 499 W/m2
09:29 30.7 °C 25.1 °C 1016.8 hPa NNW 2.6 km/h 9.7 km/h 71.7% 0 mm 513 W/m2
09:34 30.9 °C 24.8 °C 1016.8 hPa NNW 3.5 km/h 9.7 km/h 69.8% 0 mm 531 W/m2
09:39 31.1 °C 24.9 °C 1016.8 hPa NW 0.6 km/h 9.7 km/h 69.7% 0 mm 547 W/m2
09:44 31.3 °C 25.2 °C 1016.8 hPa NW 0.2 km/h 9.7 km/h 69.9% 0 mm 561 W/m2
09:49 31.6 °C 25 °C 1016.8 hPa NW 0.2 km/h 9.7 km/h 68.4% 0 mm 575 W/m2
09:54 31.7 °C 24.7 °C 1016.8 hPa NW 3.1 km/h 9.7 km/h 66.6% 0 mm 577 W/m2
09:59 31.7 °C 24.6 °C 1016.8 hPa NW 2.1 km/h 9.7 km/h 66.2% 0 mm 594 W/m2
10:04 31.8 °C 24.8 °C 1016.8 hPa NW 0.2 km/h 9.7 km/h 66.7% 0 mm 608 W/m2
10:09 31.8 °C 24.2 °C 1016.8 hPa North 0.5 km/h 4.8 km/h 64.1% 0 mm 624 W/m2
10:14 31.6 °C 24.2 °C 1016.8 hPa North 0.2 km/h 4.8 km/h 65% 0 mm 638 W/m2
10:19 31.6 °C 24.7 °C 1016.8 hPa North 0.3 km/h 4.8 km/h 66.7% 0 mm 650 W/m2
10:24 31.8 °C 24.5 °C 1016.8 hPa Calm   4.8 km/h 65.1% 0 mm 663 W/m2
10:29 32.1 °C 24.5 °C 1016.8 hPa Calm   4.8 km/h 64.1% 0 mm 670 W/m2
10:34 32.4 °C 25.1 °C 1017.2 hPa Calm   4.8 km/h 65.4% 0 mm 680 W/m2
10:39 32.5 °C 24.3 °C 1017.2 hPa Calm     61.9% 0 mm 687 W/m2
10:44 32.7 °C 24.6 °C 1017.2 hPa NNE 1.4 km/h 6.4 km/h 62.7% 0 mm 700 W/m2
10:49 32.8 °C 24.3 °C 1017.2 hPa NE 2.6 km/h 6.4 km/h 61.1% 0 mm 708 W/m2
10:54 32.7 °C 24.4 °C 1017.2 hPa ENE 0.6 km/h 6.4 km/h 62% 0 mm 722 W/m2
10:59 32.8 °C 24.7 °C 1017.2 hPa ENE 1.4 km/h 6.4 km/h 62.4% 0 mm 731 W/m2
11:04 32.9 °C 24.6 °C 1017.2 hPa Calm   6.4 km/h 61.5% 0 mm 737 W/m2
11:09 33.2 °C 24.5 °C 1017.2 hPa ENE 0.6 km/h 4.8 km/h 60.5% 0 mm 751 W/m2
11:14 33.4 °C 24.8 °C 1017.2 hPa ENE 0.2 km/h 4.8 km/h 60.8% 0 mm 754 W/m2
11:19 33.6 °C 24.6 °C 1017.2 hPa ENE 2.9 km/h 8 km/h 59.4% 0 mm 765 W/m2
11:24 33.3 °C 24.1 °C 1016.8 hPa ENE 2.3 km/h 8 km/h 58.6% 0 mm 772 W/m2
11:29 33.2 °C 24.7 °C 1016.8 hPa ENE 0.5 km/h 8 km/h 61.5% 0 mm 779 W/m2
11:34 33.3 °C 24.6 °C 1017.2 hPa ENE 0.5 km/h 8 km/h 60.5% 0 mm 780 W/m2
11:39 33.4 °C 24.7 °C 1017.2 hPa ENE 1.4 km/h 4.8 km/h 60.4% 0 mm 784 W/m2
11:44 33.5 °C 25 °C 1017.2 hPa ENE 0.2 km/h 4.8 km/h 61.1% 0 mm 786 W/m2
11:49 33.7 °C 24.6 °C 1017.2 hPa ENE 1.9 km/h 6.4 km/h 58.9% 0 mm 789 W/m2
11:54 33.8 °C 24.7 °C 1017.2 hPa ENE 2.6 km/h 9.7 km/h 58.9% 0 mm 798 W/m2
11:59 33.9 °C 24.7 °C 1017.2 hPa ENE 0.6 km/h 9.7 km/h 59% 0 mm 793 W/m2
12:09 34 °C 24.3 °C 1017.2 hPa NW 1.9 km/h 8 km/h 57.3% 0 mm 206 W/m2
12:14 33.9 °C 24.5 °C 1017.2 hPa NW 2.1 km/h 8 km/h 58.1% 0 mm 227 W/m2
12:19 33.7 °C 24.3 °C 1017.2 hPa Calm   8 km/h 57.9% 0 mm 227 W/m2
12:24 33.4 °C 23.9 °C 1017.2 hPa Calm   8 km/h 57.5% 0 mm 163 W/m2
12:29 33.2 °C 23.8 °C 1017.2 hPa NW 1.3 km/h 8 km/h 57.9% 0 mm 243 W/m2
12:34 33.1 °C 24.1 °C 1017.2 hPa NW 1 km/h 8 km/h 59.3% 0 mm 413 W/m2
12:39 33.1 °C 23.8 °C 1017.2 hPa NW 1.6 km/h 8 km/h 58.3% 0 mm 429 W/m2
12:44 33.2 °C 24.6 °C 1017.5 hPa NW 2.6 km/h 8 km/h 60.7% 0 mm 338 W/m2
12:49 33.1 °C 24.3 °C 1017.5 hPa NW 2.7 km/h 8 km/h 59.8% 0 mm 309 W/m2
12:54 33 °C 24.1 °C 1017.2 hPa NW 1.3 km/h 8 km/h 59.6% 0 mm 295 W/m2
12:59 33 °C 24.6 °C 1017.2 hPa NW 1.6 km/h 8 km/h 61.2% 0 mm 309 W/m2
13:04 32.9 °C 24.1 °C 1017.2 hPa NW 1.4 km/h 8 km/h 59.5% 0 mm 320 W/m2
13:09 33 °C 24.3 °C 1017.2 hPa NW 1.1 km/h 6.4 km/h 60.3% 0 mm 309 W/m2
13:14 32.9 °C 24.2 °C 1017.2 hPa Calm   6.4 km/h 60.2% 0 mm 306 W/m2
13:19 32.9 °C 24 °C 1017.2 hPa NNW 0.5 km/h 6.4 km/h 59.4% 0 mm 294 W/m2
13:24 32.9 °C 24 °C 1017.2 hPa NNW 1 km/h 6.4 km/h 59.4% 0 mm 269 W/m2
13:29 32.9 °C 24.3 °C 1017.2 hPa NNW 2.1 km/h 6.4 km/h 60.6% 0 mm 278 W/m2
13:34 33 °C 24.1 °C 1017.2 hPa Calm   6.4 km/h 59.5% 0 mm 299 W/m2
13:39 33 °C 24.4 °C 1016.8 hPa NNW 0.8 km/h 4.8 km/h 60.8% 0 mm 302 W/m2
13:44 33 °C 24.2 °C 1016.8 hPa Calm   4.8 km/h 59.9% 0 mm 325 W/m2
13:49 33 °C 24.7 °C 1016.8 hPa Calm   4.8 km/h 61.8% 0 mm 355 W/m2
13:54 32.9 °C 24.1 °C 1016.8 hPa NNW 0.6 km/h 4.8 km/h 59.6% 0 mm 617 W/m2
13:59 33 °C 23.6 °C 1016.8 hPa NNE 2.9 km/h 11.3 km/h 58% 0 mm 445 W/m2
14:04 33 °C 23.4 °C 1016.8 hPa NE 1.9 km/h 11.3 km/h 57.4% 0 mm 909 W/m2
14:09 33.1 °C 23.3 °C 1016.5 hPa NE 2.3 km/h 6.4 km/h 56.6% 0 mm 909 W/m2
14:14 33.2 °C 23.3 °C 1016.5 hPa NE 1.3 km/h 6.4 km/h 56% 0 mm 907 W/m2
14:19 33.4 °C 23.4 °C 1016.5 hPa Calm   6.4 km/h 55.9% 0 mm 803 W/m2
14:24 33.8 °C 23.7 °C 1016.5 hPa NE 0.5 km/h 6.4 km/h 55.7% 0 mm 788 W/m2
14:29 34.2 °C 23.8 °C 1016.5 hPa NE 3.5 km/h 8 km/h 54.9% 0 mm 770 W/m2
14:34 34.4 °C 23.7 °C 1016.5 hPa NE 0.3 km/h 8 km/h 53.5% 0 mm 759 W/m2
14:39 34.7 °C 23.9 °C 1016.1 hPa NE 0.6 km/h 6.4 km/h 53.6% 0 mm 775 W/m2
14:44 34.8 °C 23.6 °C 1016.1 hPa North 3.2 km/h 9.7 km/h 52% 0 mm 775 W/m2
14:49 34.8 °C 23 °C 1016.1 hPa North 2.9 km/h 9.7 km/h 50.5% 0 mm 768 W/m2
14:54 34.7 °C 23.1 °C 1016.1 hPa North 1.4 km/h 9.7 km/h 51.1% 0 mm 738 W/m2
14:59 34.6 °C 22.7 °C 1016.1 hPa North 1.6 km/h 9.7 km/h 50.2% 0 mm 738 W/m2
15:04 34.6 °C 22.8 °C 1016.1 hPa North 0.2 km/h 9.7 km/h 50.7% 0 mm 733 W/m2
15:09 34.4 °C 22.7 °C 1016.1 hPa North 0.8 km/h 4.8 km/h 50.9% 0 mm 724 W/m2
15:14 34.2 °C 22.9 °C 1016.1 hPa North 0.5 km/h 4.8 km/h 52% 0 mm 327 W/m2
15:19 34.2 °C 23.6 °C 1016.1 hPa Calm   4.8 km/h 53.9% 0 mm 777 W/m2
15:24 34.2 °C 22.8 °C 1016.1 hPa North 1.4 km/h 4.8 km/h 51.6% 0 mm 765 W/m2
15:29 34.3 °C 23 °C 1016.1 hPa North 2.1 km/h 4.8 km/h 51.7% 0 mm 765 W/m2
15:34 34.4 °C 23.1 °C 1016.1 hPa North 1.4 km/h 4.8 km/h 51.8% 0 mm 659 W/m2
15:39 34.4 °C 23.3 °C 1016.1 hPa North 1.6 km/h 4.8 km/h 52.4% 0 mm 628 W/m2
15:44 34.4 °C 23.3 °C 1016.1 hPa North 1.9 km/h 6.4 km/h 52.4% 0 mm 612 W/m2
15:49 34.6 °C 23.1 °C 1016.1 hPa North 1.1 km/h 6.4 km/h 51.4% 0 mm 594 W/m2
15:54 34.6 °C 22.9 °C 1016.1 hPa North 1 km/h 6.4 km/h 50.8% 0 mm 578 W/m2
15:59 34.7 °C 23 °C 1016.1 hPa North 1.3 km/h 6.4 km/h 50.8% 0 mm 561 W/m2
16:09 34.4 °C 23.1 °C 1016.1 hPa North 2.1 km/h 6.4 km/h 51.8% 0 mm 77 W/m2
16:14 34.2 °C 22.4 °C 1016.1 hPa North 2.4 km/h 6.4 km/h 50.6% 0 mm 74 W/m2
16:19 34.1 °C 22.4 °C 1016.1 hPa North 1.1 km/h 6.4 km/h 50.8% 0 mm 69 W/m2
16:24 33.9 °C 21.9 °C 1016.1 hPa North 0.6 km/h 6.4 km/h 49.5% 0 mm 67 W/m2
16:29 33.8 °C 22.5 °C 1015.8 hPa North 1.3 km/h 6.4 km/h 51.7% 0 mm 70 W/m2
16:34 33.8 °C 22.4 °C 1015.8 hPa North 0.6 km/h 6.4 km/h 51.7% 0 mm 74 W/m2
16:39 33.7 °C 22.5 °C 1015.8 hPa North 1.6 km/h 4.8 km/h 52.1% 0 mm 83 W/m2
16:44 33.6 °C 22.8 °C 1016.1 hPa North 2.6 km/h 6.4 km/h 53.4% 0 mm 83 W/m2
16:49 33.4 °C 22.8 °C 1016.1 hPa NNW 1.9 km/h 9.7 km/h 53.7% 0 mm 74 W/m2
16:54 33.3 °C 22.7 °C 1016.1 hPa NNW 0.3 km/h 9.7 km/h 53.7% 0 mm 79 W/m2
16:59 33.2 °C 22.7 °C 1016.1 hPa NNW 0.3 km/h 9.7 km/h 54.4% 0 mm 77 W/m2
17:04 33 °C 22.6 °C 1016.1 hPa NNW 1.6 km/h 9.7 km/h 54.4% 0 mm 72 W/m2
17:09 32.8 °C 22.9 °C 1016.1 hPa NNE 1 km/h 9.7 km/h 56.1% 0 mm 72 W/m2
17:14 32.7 °C 23.1 °C 1016.1 hPa NE 0.2 km/h 9.7 km/h 57.2% 0 mm 97 W/m2
17:19 32.6 °C 23.3 °C 1016.1 hPa NE 0.3 km/h 9.7 km/h 58.2% 0 mm 107 W/m2
17:24 32.4 °C 23.4 °C 1016.1 hPa NE 2.6 km/h 9.7 km/h 59.2% 0 mm 104 W/m2
17:29 32.3 °C 23.1 °C 1016.1 hPa NE 0.3 km/h 9.7 km/h 58.2% 0 mm 98 W/m2
17:34 32.3 °C 23.3 °C 1016.1 hPa NE 0.3 km/h 9.7 km/h 59% 0 mm 77 W/m2
17:39 32.3 °C 23.6 °C 1016.1 hPa NNE 1 km/h 9.7 km/h 60.2% 0 mm 77 W/m2
17:44 32.2 °C 23.9 °C 1016.1 hPa NW 1.3 km/h 14.5 km/h 61.4% 0 mm 83 W/m2
17:49 32.1 °C 23.7 °C 1016.5 hPa NNW 4 km/h 14.5 km/h 61.3% 0 mm 90 W/m2
17:54 31.8 °C 23.7 °C 1016.5 hPa NW 3.7 km/h 14.5 km/h 62.4% 0 mm 88 W/m2
17:59 31.6 °C 23.7 °C 1016.5 hPa NW 0.6 km/h 14.5 km/h 62.8% 0 mm 60 W/m2
18:04 31.5 °C 23.6 °C 1016.5 hPa NW 0.8 km/h 14.5 km/h 63.2% 0 mm 40 W/m2
18:09 31.3 °C 23.4 °C 1016.8 hPa NNW 3.4 km/h 11.3 km/h 63% 0 mm 32 W/m2
18:14 30.9 °C 22.8 °C 1016.8 hPa NNW 4.8 km/h 22.5 km/h 61.9% 0 mm 39 W/m2
18:19 30.4 °C 22.1 °C 1016.8 hPa North 1.1 km/h 22.5 km/h 61.2% 0 mm 44 W/m2
18:24 30 °C 22.3 °C 1016.8 hPa NW 6.3 km/h 22.5 km/h 63.2% 0 mm 44 W/m2
18:29 29.5 °C 22 °C 1016.8 hPa NW 5 km/h 22.5 km/h 64.2% 0 mm 35 W/m2
18:34 29.1 °C 21.8 °C 1016.8 hPa NNW 3.4 km/h 22.5 km/h 65.1% 0 mm 28 W/m2
18:39 28.7 °C 21.7 °C 1016.8 hPa NW 1.9 km/h 12.9 km/h 65.8% 0 mm 25 W/m2
18:44 28.4 °C 21.7 °C 1016.8 hPa NNW 1 km/h 12.9 km/h 66.7% 0 mm 26 W/m2
18:49 28.3 °C 21.6 °C 1016.8 hPa NNW 0.8 km/h 12.9 km/h 67.3% 0 mm 26 W/m2
18:54 28.1 °C 21.4 °C 1016.8 hPa NNW 2.4 km/h 12.9 km/h 67% 0 mm 26 W/m2
18:59 27.9 °C 21.3 °C 1016.8 hPa North 1.1 km/h 12.9 km/h 67% 0 mm 23 W/m2
19:04 27.8 °C 21.2 °C 1016.8 hPa Calm   12.9 km/h 67.2% 0 mm 14 W/m2
19:09 27.8 °C 21.1 °C 1016.8 hPa Calm     67% 0 mm 9 W/m2
19:14 27.7 °C 21.2 °C 1017.5 hPa Calm     67.8% 0 mm 0 W/m2
19:19 27.6 °C 21.1 °C 1017.5 hPa Calm     67.5% 0 mm 0 W/m2
19:24 27.6 °C 20.9 °C 1017.5 hPa Calm     67.3% 0 mm 0 W/m2
19:29 27.6 °C 21.1 °C 1017.5 hPa Calm     68% 0 mm 0 W/m2
19:34 27.4 °C 21.1 °C 1017.5 hPa Calm     68% 0 mm 0 W/m2
19:39 27.4 °C 21.1 °C 1017.5 hPa Calm     68.2% 0 mm 0 W/m2
19:44 27.3 °C 21.2 °C 1017.5 hPa Calm     69% 0 mm 0 W/m2
19:49 27.3 °C 21.2 °C 1017.5 hPa Calm     69.5% 0 mm 0 W/m2
19:54 27.2 °C 21.3 °C 1017.8 hPa Calm     70% 0 mm 0 W/m2
19:59 27.1 °C 21.3 °C 1017.8 hPa Calm     70.5% 0 mm 0 W/m2
20:00 27 °C 21.3 °C 1017.5 hPa Calm     71% 0 mm 0 W/m2
20:09 26.9 °C 21.5 °C 1017.8 hPa Calm     72.2% 0 mm 0 W/m2
20:14 26.8 °C 21.4 °C 1017.8 hPa Calm     72.4% 0 mm 0 W/m2
20:19 26.8 °C 21.6 °C 1017.8 hPa Calm     72.9% 0 mm 0 W/m2
20:24 26.8 °C 21.6 °C 1018.2 hPa Calm     73% 0 mm 0 W/m2
20:29 26.7 °C 21.6 °C 1018.2 hPa NNE 0.2 km/h 4.8 km/h 73.5% 0 mm 0 W/m2
20:34 26.7 °C 21.7 °C 1018.2 hPa North 0.2 km/h 4.8 km/h 74% 0 mm 0 W/m2
20:39 26.6 °C 21.7 °C 1018.2 hPa Calm   3.2 km/h 74.6% 0 mm 0 W/m2
20:44 26.6 °C 21.8 °C 1018.2 hPa North 0.6 km/h 6.4 km/h 75% 0 mm 0 W/m2
20:49 26.6 °C 21.9 °C 1018.5 hPa North 0.8 km/h 6.4 km/h 75.9% 0 mm 0 W/m2
20:54 26.5 °C 21.9 °C 1018.5 hPa Calm   6.4 km/h 76% 0 mm 0 W/m2
20:59 26.4 °C 21.8 °C 1018.5 hPa Calm   6.4 km/h 76.2% 0 mm 0 W/m2
21:04 26.3 °C 21.9 °C 1018.8 hPa Calm   6.4 km/h 77% 0 mm 0 W/m2
21:09 26.2 °C 21.9 °C 1018.8 hPa Calm     77% 0 mm 0 W/m2
21:14 26.2 °C 21.9 °C 1018.8 hPa Calm     77.8% 0 mm 0 W/m2
21:19 26.1 °C 21.8 °C 1018.8 hPa North 0.3 km/h 6.4 km/h 77.5% 0 mm 0 W/m2
21:24 26 °C 21.8 °C 1018.8 hPa North 0.5 km/h 8 km/h 77.5% 0 mm 0 W/m2
21:29 26 °C 21.8 °C 1018.8 hPa North 0.5 km/h 8 km/h 77.7% 0 mm 0 W/m2
21:34 25.9 °C 21.8 °C 1018.8 hPa Calm   8 km/h 78% 0 mm 0 W/m2
21:39 25.9 °C 21.8 °C 1018.8 hPa Calm     78% 0 mm 0 W/m2
21:44 25.8 °C 21.7 °C 1018.8 hPa North 0.2 km/h 4.8 km/h 78% 0 mm 0 W/m2
21:49 25.8 °C 21.7 °C 1018.8 hPa Calm   4.8 km/h 78% 0 mm 0 W/m2
21:54 25.8 °C 21.7 °C 1018.8 hPa Calm   4.8 km/h 78% 0 mm 0 W/m2
21:59 25.8 °C 21.7 °C 1018.8 hPa Calm   4.8 km/h 78.2% 0 mm 0 W/m2
22:04 25.8 °C 21.8 °C 1019.2 hPa Calm   4.8 km/h 79% 0 mm 0 W/m2
22:09 25.8 °C 21.8 °C 1019.2 hPa Calm     79% 0 mm 0 W/m2
22:14 25.7 °C 21.8 °C 1018.8 hPa NNE 0.2 km/h 1.6 km/h 79% 0 mm 0 W/m2
22:19 25.7 °C 21.8 °C 1018.8 hPa NNE 0.5 km/h 8 km/h 79% 0 mm 0 W/m2
22:24 25.7 °C 21.8 °C 1018.8 hPa Calm   8 km/h 79.2% 0 mm 0 W/m2
22:29 25.6 °C 21.9 °C 1018.8 hPa Calm   8 km/h 80% 0 mm 0 W/m2
22:34 25.6 °C 21.9 °C 1019.2 hPa Calm   8 km/h 80% 0 mm 0 W/m2
22:39 25.6 °C 22 °C 1019.2 hPa Calm     80.7% 0 mm 0 W/m2
22:44 25.5 °C 22 °C 1019.2 hPa NNE 0.3 km/h 8 km/h 81% 0 mm 0 W/m2
22:49 25.4 °C 22.1 °C 1019.2 hPa Calm   8 km/h 81.6% 0 mm 0 W/m2
22:54 25.4 °C 22.2 °C 1019.2 hPa North 0.5 km/h 9.7 km/h 82% 0 mm 0 W/m2
22:59 25.4 °C 22.2 °C 1019.2 hPa North 0.2 km/h 9.7 km/h 82% 0 mm 0 W/m2
23:04 25.4 °C 22.3 °C 1019.2 hPa Calm   9.7 km/h 82.9% 0 mm 0 W/m2
23:09 25.4 °C 22.3 °C 1019.2 hPa Calm     83% 0 mm 0 W/m2
23:14 25.4 °C 22.3 °C 1019.2 hPa Calm     83% 0 mm 0 W/m2
23:19 25.4 °C 22.4 °C 1019.2 hPa Calm   1.6 km/h 83.4% 0 mm 0 W/m2
23:24 25.3 °C 22.4 °C 1019.2 hPa Calm   1.6 km/h 84% 0 mm 0 W/m2
23:29 25.3 °C 22.4 °C 1019.2 hPa North 0.3 km/h 8 km/h 84% 0 mm 0 W/m2
23:34 25.3 °C 22.4 °C 1019.2 hPa NNW 0.3 km/h 8 km/h 84% 0 mm 0 W/m2
23:39 25.3 °C 22.4 °C 1019.2 hPa Calm   6.4 km/h 84% 0 mm 0 W/m2
23:44 25.3 °C 22.5 °C 1019.2 hPa Calm   6.4 km/h 84.5% 0 mm 0 W/m2
23:49 25.3 °C 22.6 °C 1019.5 hPa East 0.2 km/h 6.4 km/h 85% 0 mm 0 W/m2
23:54 25.3 °C 22.6 °C 1019.5 hPa ENE 0.2 km/h 6.4 km/h 85% 0 mm 0 W/m2
23:59 25.3 °C 22.6 °C 1019.9 hPa NW 1 km/h 8 km/h 85% 0 mm 0 W/m2
Hartford County Weather
Compliments of Weather Underground - 4 mb